Time;durP1;ratioP1;P1;durP2;ratioP2;P2;SDS_P1;SDS_P2;PMS_P1;PMS_P2;Temp;Humidity;BMP_temperature;BMP_pressure;BME280_temperature;BME280_humidity;BME280_pressure;Samples;Min_cycle;Max_cycle;Signal;HPM_P1;HPM_P2
2021/12/15 00:00:24;;;;;;;21.23;14.00;;;;;;;2.99;61.23;102442.38;2090090;28;20266;-67
2021/12/15 00:01:26;;;;;;;19.43;14.07;;;;;;;2.95;61.63;102448.91;2090190;28;20183;-67
2021/12/15 00:02:28;;;;;;;17.70;13.20;;;;;;;2.96;61.84;102442.28;2097299;28;20180;-67
2021/12/15 00:03:30;;;;;;;20.38;14.30;;;;;;;2.99;61.50;102449.81;2097665;28;20255;-67
2021/12/15 00:04:30;;;;;;;20.75;14.43;;;;;;;2.92;61.20;102425.69;2090139;28;20193;-67
2021/12/15 00:05:31;;;;;;;18.93;12.80;;;;;;;2.96;61.21;102440.31;2090030;28;20261;-67
2021/12/15 00:06:32;;;;;;;19.87;13.93;;;;;;;2.90;61.51;102427.19;2090197;28;20225;-67
2021/12/15 00:07:33;;;;;;;19.47;13.67;;;;;;;2.21;61.55;102319.66;2090142;28;20476;-67
2021/12/15 00:08:34;;;;;;;20.93;14.53;;;;;;;2.96;61.43;102437.56;2090120;28;20424;-67
2021/12/15 00:09:34;;;;;;;20.47;13.93;;;;;;;2.94;61.71;102439.06;2090339;28;20186;-67
2021/12/15 00:10:35;;;;;;;20.07;14.07;;;;;;;2.82;61.06;102431.66;2089839;28;20195;-67
2021/12/15 00:11:37;;;;;;;20.07;14.60;;;;;;;2.87;61.47;102430.63;2090219;28;20183;-67
2021/12/15 00:12:37;;;;;;;18.88;14.00;;;;;;;2.86;61.61;102434.53;2089453;28;20184;-67
2021/12/15 00:13:40;;;;;;;20.23;14.17;;;;;;;2.86;61.34;102429.81;2090122;28;20191;-67
2021/12/15 00:14:43;;;;;;;19.83;13.25;;;;;;;2.85;61.79;102441.16;2090176;28;20687;-67
2021/12/15 00:15:46;;;;;;;20.63;14.55;;;;;;;2.79;61.48;102437.84;2090236;28;20178;-67
2021/12/15 00:16:49;;;;;;;19.58;14.45;;;;;;;2.75;61.93;102439.69;2090101;28;20183;-67
2021/12/15 00:17:53;;;;;;;20.80;14.77;;;;;;;2.72;62.49;102437.66;2090174;28;20236;-67
2021/12/15 00:18:53;;;;;;;20.88;14.60;;;;;;;2.66;62.17;102435.50;2090084;28;20191;-67
2021/12/15 00:19:54;;;;;;;21.03;14.53;;;;;;;2.53;62.60;102409.19;2089331;28;20195;-67
2021/12/15 00:20:55;;;;;;;19.63;14.30;;;;;;;2.62;62.82;102432.63;2089430;28;20189;-67
2021/12/15 00:21:56;;;;;;;21.63;14.77;;;;;;;2.65;62.14;102440.16;2089523;28;20209;-67
2021/12/15 00:22:58;;;;;;;20.23;13.40;;;;;;;2.61;62.40;102431.00;2089945;28;20687;-67
2021/12/15 00:23:59;;;;;;;18.38;13.02;;;;;;;2.60;61.96;102429.41;2090119;28;20598;-68
2021/12/15 00:25:00;;;;;;;20.58;13.80;;;;;;;2.50;62.38;102416.16;2089795;28;20173;-67
2021/12/15 00:26:00;;;;;;;19.60;14.27;;;;;;;2.59;62.54;102432.50;2090250;28;20762;-67
2021/12/15 00:27:01;;;;;;;20.57;13.97;;;;;;;2.18;62.97;102380.66;2089965;28;20706;-67
2021/12/15 00:28:02;;;;;;;20.23;13.80;;;;;;;2.48;62.78;102432.19;2089985;28;20178;-67
2021/12/15 00:29:05;;;;;;;20.92;14.27;;;;;;;2.39;62.49;102428.75;2089268;28;20193;-67
2021/12/15 00:30:08;;;;;;;20.33;13.93;;;;;;;2.37;63.17;102431.06;2089466;28;20710;-67
2021/12/15 00:31:10;;;;;;;20.60;14.60;;;;;;;2.32;63.01;102428.53;2089916;28;20181;-67
2021/12/15 00:32:10;;;;;;;22.35;15.52;;;;;;;2.38;63.13;102435.41;2089593;28;20187;-67
2021/12/15 00:33:12;;;;;;;20.40;13.80;;;;;;;2.38;63.33;102435.41;2089979;28;20265;-67
2021/12/15 00:34:14;;;;;;;19.50;13.73;;;;;;;2.29;63.00;102440.19;2089986;28;20204;-67
2021/12/15 00:35:16;;;;;;;21.13;13.55;;;;;;;2.23;63.04;102433.34;2089791;28;20313;-67
2021/12/15 00:36:17;;;;;;;19.15;13.18;;;;;;;2.24;63.13;102434.94;2090005;28;20172;-67
2021/12/15 00:37:20;;;;;;;21.45;13.98;;;;;;;2.27;63.69;102438.94;2089013;28;20563;-67
2021/12/15 00:38:20;;;;;;;22.75;15.50;;;;;;;2.28;63.19;102429.56;2090004;28;20179;-67
2021/12/15 00:39:22;;;;;;;19.50;13.53;;;;;;;2.23;63.26;102432.53;2089869;28;20645;-67
2021/12/15 00:40:24;;;;;;;19.65;14.10;;;;;;;2.22;63.31;102430.94;2089835;28;20181;-67
2021/12/15 00:41:25;;;;;;;19.85;14.23;;;;;;;2.10;63.66;102428.19;2089973;28;20255;-67
2021/12/15 00:42:26;;;;;;;22.13;14.18;;;;;;;1.61;63.95;102361.56;2089337;28;20231;-67
2021/12/15 00:43:27;;;;;;;20.43;14.23;;;;;;;2.01;63.95;102425.56;2089967;28;20180;-67
2021/12/15 00:44:28;;;;;;;19.63;13.90;;;;;;;1.88;63.79;102426.69;2090000;28;20180;-67
2021/12/15 00:45:29;;;;;;;21.90;14.63;;;;;;;1.98;63.66;102439.94;2089749;28;20658;-67
2021/12/15 00:46:30;;;;;;;20.52;13.80;;;;;;;2.02;64.02;102437.31;2089953;28;20181;-67
2021/12/15 00:47:30;;;;;;;20.40;13.83;;;;;;;2.04;63.53;102441.31;2089853;28;20296;-67
2021/12/15 00:48:31;;;;;;;19.83;13.73;;;;;;;2.05;63.97;102429.19;2089708;28;20209;-67
2021/12/15 00:49:33;;;;;;;21.40;14.33;;;;;;;2.02;63.89;102437.31;2089742;28;20173;-67
2021/12/15 00:50:35;;;;;;;19.55;13.82;;;;;;;2.02;63.58;102434.56;2089863;28;20544;-67
2021/12/15 00:51:38;;;;;;;19.48;14.50;;;;;;;1.99;63.96;102436.06;2089882;28;20642;-67
2021/12/15 00:52:40;;;;;;;21.02;14.70;;;;;;;1.98;63.68;102431.72;2089336;28;20185;-67
2021/12/15 00:53:41;;;;;;;18.80;13.52;;;;;;;2.05;63.82;102442.13;2089873;28;20188;-67
2021/12/15 00:54:41;;;;;;;19.63;13.13;;;;;;;2.06;63.96;102447.28;2097373;28;20180;-67
2021/12/15 00:55:43;;;;;;;20.27;14.00;;;;;;;2.06;63.80;102439.03;2097392;28;20184;-67
2021/12/15 00:56:44;;;;;;;18.77;13.98;;;;;;;1.65;63.75;102378.13;2089843;28;20184;-67
2021/12/15 00:57:45;;;;;;;20.02;14.20;;;;;;;2.07;63.74;102443.38;2089858;28;20280;-67
2021/12/15 00:58:46;;;;;;;20.75;13.95;;;;;;;2.12;63.85;102442.34;2089850;28;20263;-67
2021/12/15 00:59:47;;;;;;;20.07;14.60;;;;;;;2.12;63.79;102436.88;2097350;28;20241;-67
2021/12/15 01:00:55;;;;;;;20.17;13.63;;;;;;;2.10;63.51;102439.16;2097394;28;20424;-67
2021/12/15 01:01:55;;;;;;;21.08;14.13;;;;;;;1.04;63.28;102272.34;2089283;28;20626;-67
2021/12/15 01:02:57;;;;;;;18.67;13.23;;;;;;;2.03;63.70;102444.38;2089535;28;20575;-67
2021/12/15 01:03:58;;;;;;;20.35;13.93;;;;;;;2.00;63.83;102437.66;2089830;28;20184;-67
2021/12/15 01:04:58;;;;;;;19.17;13.17;;;;;;;2.02;63.94;102438.13;2089507;28;20176;-67
2021/12/15 01:06:06;;;;;;;18.80;13.27;;;;;;;2.04;63.64;102440.53;2089944;28;20252;-67
2021/12/15 01:07:09;;;;;;;21.08;13.32;;;;;;;1.94;63.91;102436.28;2089673;28;20167;-67
2021/12/15 01:08:14;;;;;;;18.25;12.80;;;;;;;1.48;63.45;102372.84;2089736;28;20180;-67
2021/12/15 01:09:20;;;;;;;20.13;13.35;;;;;;;1.98;63.39;102442.69;2089663;28;20168;-67
2021/12/15 01:10:28;;;;;;;20.88;13.35;;;;;;;1.10;63.49;102303.81;2089491;28;20628;-66
2021/12/15 01:20:42;;;;;;;18.55;12.40;;;;;;;2.05;63.61;102440.16;2089751;28;20588;-67
2021/12/15 01:21:43;;;;;;;17.77;12.48;;;;;;;2.12;63.82;102439.59;2089698;28;20170;-67
2021/12/15 01:22:47;;;;;;;17.63;12.50;;;;;;;1.99;63.82;102413.34;2089197;28;20189;-67
2021/12/15 01:23:47;;;;;;;19.20;13.57;;;;;;;2.00;63.28;102407.50;2089607;28;20237;-67
2021/12/15 01:24:49;;;;;;;19.03;12.90;;;;;;;2.22;63.22;102439.97;2089510;28;20178;-67
2021/12/15 01:25:54;;;;;;;20.30;12.95;;;;;;;2.22;63.15;102430.94;2089575;28;20282;-67
2021/12/15 01:26:55;;;;;;;18.02;13.02;;;;;;;2.33;63.62;102441.09;2088893;28;20269;-67
2021/12/15 01:27:57;;;;;;;18.20;12.98;;;;;;;2.38;63.37;102460.06;2089080;28;20181;-67
2021/12/15 01:28:58;;;;;;;19.98;13.32;;;;;;;1.48;63.36;102285.22;2089299;28;20713;-67
2021/12/15 01:29:58;;;;;;;18.37;13.20;;;;;;;2.48;62.72;102440.41;2089782;28;20603;-67
2021/12/15 01:31:01;;;;;;;18.93;13.60;;;;;;;2.48;62.75;102437.69;2089219;28;20921;-67
2021/12/15 01:32:02;;;;;;;19.25;13.25;;;;;;;1.45;62.77;102277.66;2089072;28;20209;-67
2021/12/15 01:33:04;;;;;;;17.65;12.77;;;;;;;2.53;62.80;102437.44;2089506;28;20627;-67
2021/12/15 01:34:05;;;;;;;17.90;12.85;;;;;;;2.58;62.54;102437.22;2089532;28;20207;-67
2021/12/15 01:35:07;;;;;;;18.90;12.80;;;;;;;2.46;62.94;102437.19;2089314;28;20236;-67
2021/12/15 01:36:09;;;;;;;17.90;12.02;;;;;;;2.37;62.15;102403.63;2089536;28;20257;-67
2021/12/15 01:37:09;;;;;;;18.98;12.80;;;;;;;2.01;61.88;102331.56;2089541;28;20286;-67
2021/12/15 01:38:11;;;;;;;17.57;12.27;;;;;;;2.70;61.89;102430.91;2089524;28;20184;-67
2021/12/15 01:39:12;;;;;;;17.10;12.27;;;;;;;2.56;62.46;102428.50;2088643;28;20193;-67
2021/12/15 01:40:23;;;;;;;16.30;11.63;;;;;;;2.60;62.35;102439.63;2088967;28;20191;-67
2021/12/15 01:41:25;;;;;;;17.40;12.50;;;;;;;2.59;62.51;102441.53;2089425;28;20167;-67
2021/12/15 01:42:30;;;;;;;17.52;11.80;;;;;;;2.55;62.05;102440.63;2088871;28;20313;-67
2021/12/15 01:47:39;;;;;;;16.13;11.50;;;;;;;2.58;62.68;102431.72;2089457;28;20204;-67
2021/12/15 01:48:41;;;;;;;14.33;10.63;;;;;;;2.59;62.36;102433.31;2089023;28;20178;-67
2021/12/15 01:49:45;;;;;;;16.25;11.13;;;;;;;2.64;62.25;102430.34;2089336;28;20663;-67
2021/12/15 01:50:45;;;;;;;17.60;11.88;;;;;;;2.71;62.08;102433.28;2089336;28;20678;-67
2021/12/15 01:51:47;;;;;;;15.17;10.77;;;;;;;2.77;61.96;102434.63;2089437;28;20557;-67
2021/12/15 01:52:47;;;;;;;15.23;10.95;;;;;;;2.79;61.59;102426.88;2088960;28;20171;-67
2021/12/15 01:53:48;;;;;;;15.83;11.17;;;;;;;2.33;61.80;102352.53;2088739;28;20223;-67
2021/12/15 01:55:10;;;;;;;16.10;11.17;;;;;;;2.87;61.23;102430.63;2088609;28;20189;-67
2021/12/15 01:56:11;;;;;;;15.60;11.00;;;;;;;2.83;61.04;102427.78;2089414;28;20255;-67
2021/12/15 01:57:12;;;;;;;17.50;11.50;;;;;;;2.83;60.80;102436.03;2089234;28;20226;-67
2021/12/15 01:58:13;;;;;;;14.57;10.82;;;;;;;2.86;60.67;102431.78;2089364;28;20179;-67
2021/12/15 01:59:20;;;;;;;18.27;11.52;;;;;;;2.84;60.71;102423.09;2089207;28;20171;-67
2021/12/15 02:00:44;;;;;;;15.98;11.57;;;;;;;2.84;60.95;102407.44;2089360;28;20652;-67
2021/12/15 02:01:45;;;;;;;15.27;11.05;;;;;;;2.97;60.87;102432.91;2089308;28;20172;-67
2021/12/15 02:02:46;;;;;;;15.83;11.60;;;;;;;2.96;60.68;102458.75;2088746;28;20171;-67
2021/12/15 02:03:47;;;;;;;17.35;11.10;;;;;;;2.92;60.73;102436.66;2089236;28;20175;-67
2021/12/15 02:04:53;;;;;;;16.20;11.87;;;;;;;2.91;60.82;102432.34;2089253;28;20181;-67
2021/12/15 02:05:54;;;;;;;17.40;12.70;;;;;;;2.91;60.63;102432.34;2089252;28;20178;-67
2021/12/15 02:06:55;;;;;;;16.75;12.15;;;;;;;2.91;60.40;102439.78;2089081;28;20728;-67
2021/12/15 02:07:59;;;;;;;17.95;12.18;;;;;;;2.89;61.07;102434.63;2089233;28;20580;-67
2021/12/15 02:09:00;;;;;;;19.50;12.48;;;;;;;2.95;61.20;102455.19;2089041;28;20173;-67
2021/12/15 02:11:02;;;;;;;15.10;10.63;;;;;;;2.91;60.33;102442.53;2088882;28;20411;-67
2021/12/15 02:12:03;;;;;;;13.98;10.45;;;;;;;2.93;60.86;102448.47;2088761;28;20651;-67
2021/12/15 02:13:07;;;;;;;16.20;11.85;;;;;;;2.93;61.03;102434.75;2089226;28;20179;-67
2021/12/15 02:14:07;;;;;;;15.82;10.85;;;;;;;2.77;60.51;102417.41;2089027;28;20172;-67
2021/12/15 02:15:16;;;;;;;15.83;11.10;;;;;;;2.96;60.45;102440.31;2089198;28;20173;-67
2021/12/15 02:16:17;;;;;;;15.77;11.50;;;;;;;2.87;60.57;102431.41;2089346;28;20158;-67
2021/12/15 02:17:17;;;;;;;15.50;11.00;;;;;;;2.60;60.50;102369.06;2089228;28;20176;-67
2021/12/15 02:18:21;;;;;;;16.33;10.57;;;;;;;3.01;60.33;102442.06;2096787;28;20678;-67
2021/12/15 02:19:22;;;;;;;16.95;11.70;;;;;;;3.03;60.36;102434.25;2096381;28;20171;-67
2021/12/15 02:20:53;;;;;;;17.47;11.47;;;;;;;3.06;60.41;102441.81;2089247;28;20175;-67
2021/12/15 02:21:54;;;;;;;16.42;11.65;;;;;;;3.11;60.01;102433.31;2088607;28;20224;-67
2021/12/15 02:22:54;;;;;;;15.03;11.23;;;;;;;3.19;60.13;102433.16;2088367;28;20676;-67
2021/12/15 02:23:56;;;;;;;17.20;11.20;;;;;;;3.22;60.17;102437.16;2088556;28;20228;-67
2021/12/15 02:24:57;;;;;;;17.02;11.50;;;;;;;3.20;60.43;102434.75;2089069;28;20176;-67
2021/12/15 02:26:00;;;;;;;16.30;11.43;;;;;;;3.18;59.81;102430.78;2089190;28;20175;-67
2021/12/15 02:27:02;;;;;;;17.15;11.00;;;;;;;3.23;60.30;102433.28;2088986;28;20290;-67
2021/12/15 02:28:07;;;;;;;19.45;12.30;;;;;;;2.76;59.98;102356.22;2089076;28;20685;-67
2021/12/15 02:29:15;;;;;;;17.13;11.90;;;;;;;2.16;59.88;102254.91;2088899;28;20182;-67
2021/12/15 02:31:11;;;;;;;17.73;11.27;;;;;;;3.37;59.41;102430.94;2089189;28;20245;-67
2021/12/15 02:34:32;;;;;;;16.90;11.25;;;;;;;3.44;59.94;102437.41;2089244;28;20190;-67
2021/12/15 02:38:25;;;;;;;16.15;10.80;;;;;;;2.98;59.57;102371.34;2089288;28;20158;-67
2021/12/15 02:39:26;;;;;;;15.52;11.23;;;;;;;3.37;60.12;102439.16;2088995;28;20183;-67
2021/12/15 02:40:26;;;;;;;15.87;11.60;;;;;;;3.31;59.71;102418.56;2089103;28;20179;-67
2021/12/15 02:41:30;;;;;;;16.73;11.43;;;;;;;3.46;59.93;102440.59;2088952;28;20194;-67
2021/12/15 02:42:34;;;;;;;17.95;12.00;;;;;;;3.37;59.66;102433.69;2088379;28;20258;-67
2021/12/15 02:43:36;;;;;;;17.98;12.27;;;;;;;3.44;59.67;102429.19;2089053;28;20181;-67
2021/12/15 02:44:41;;;;;;;15.82;11.30;;;;;;;3.48;59.47;102434.75;2089020;28;20175;-67
2021/12/15 02:45:42;;;;;;;16.17;11.15;;;;;;;3.44;59.67;102431.94;2088974;28;20174;-67
2021/12/15 02:46:44;;;;;;;15.67;11.63;;;;;;;3.48;59.44;102426.53;2088906;28;20182;-67
2021/12/15 02:47:46;;;;;;;14.90;10.75;;;;;;;3.46;59.77;102415.06;2088925;28;20819;-67
2021/12/15 02:48:47;;;;;;;16.52;11.85;;;;;;;3.45;59.49;102422.53;2088985;28;20232;-67
2021/12/15 02:49:52;;;;;;;16.07;11.37;;;;;;;3.50;59.45;102422.28;2088816;28;20231;-67
2021/12/15 02:50:53;;;;;;;15.32;11.15;;;;;;;3.54;59.35;102423.19;2088920;28;20245;-67
2021/12/15 02:51:57;;;;;;;15.33;11.23;;;;;;;2.99;59.37;102346.28;2088528;28;20179;-67
2021/12/15 02:52:58;;;;;;;15.93;11.48;;;;;;;3.40;59.44;102406.28;2088669;28;20177;-67
2021/12/15 02:54:00;;;;;;;14.63;10.97;;;;;;;2.76;59.55;102303.28;2089085;28;20261;-67
2021/12/15 02:55:01;;;;;;;15.07;11.10;;;;;;;3.55;59.76;102430.25;2089014;28;20426;-67
2021/12/15 02:56:03;;;;;;;14.52;10.60;;;;;;;3.57;59.52;102413.44;2088913;28;20723;-67
2021/12/15 02:57:09;;;;;;;15.93;11.45;;;;;;;3.57;59.80;102419.72;2088839;28;20171;-67
2021/12/15 02:58:10;;;;;;;14.77;10.57;;;;;;;3.61;59.71;102419.78;2089069;28;20166;-67
2021/12/15 02:59:14;;;;;;;13.97;10.57;;;;;;;3.65;59.66;102409.69;2088974;28;20189;-67
2021/12/15 03:00:18;;;;;;;14.07;10.43;;;;;;;3.67;59.57;102418.38;2088486;28;20181;-67
2021/12/15 03:01:39;;;;;;;14.55;9.93;;;;;;;3.38;59.56;102392.09;2088908;28;20170;-67
2021/12/15 03:05:41;;;;;;;14.82;10.00;;;;;;;3.65;59.25;102405.03;2063446;28;20181;-67
2021/12/15 03:06:53;;;;;;;14.35;10.60;;;;;;;3.59;59.21;102408.38;2072155;28;20195;-67
2021/12/15 03:08:08;;;;;;;14.52;10.32;;;;;;;3.54;59.39;102409.44;2080647;28;20191;-67
2021/12/15 03:15:16;;;;;;;14.30;10.40;;;;;;;2.70;59.76;102267.03;2080495;28;20252;-67
2021/12/15 03:15:56;;;;;;;17.33;11.95;;;;;;;3.46;59.25;102407.63;2079674;28;20196;-67
2021/12/15 03:16:58;;;;;;;15.82;11.73;;;;;;;3.46;59.87;102406.81;2087829;28;20199;-67
2021/12/15 03:18:06;;;;;;;14.35;10.90;;;;;;;3.41;60.04;102413.38;2088936;28;20252;-67
2021/12/15 03:19:07;;;;;;;15.15;11.13;;;;;;;3.39;60.16;102410.19;2088853;28;20250;-67
2021/12/15 03:20:10;;;;;;;15.87;11.70;;;;;;;3.16;59.36;102356.97;2088682;28;20234;-67
2021/12/15 03:21:25;;;;;;;17.20;11.23;;;;;;;3.40;59.87;102397.25;2088880;28;20194;-67
2021/12/15 03:22:26;;;;;;;17.08;11.52;;;;;;;3.42;60.04;102406.72;2088335;28;20159;-67
2021/12/15 03:23:54;;;;;;;16.17;12.02;;;;;;;3.39;59.86;102401.16;2088844;28;20279;-67
2021/12/15 03:24:55;;;;;;;15.77;11.43;;;;;;;2.99;60.28;102340.81;2076673;28;20282;-67
2021/12/15 03:25:57;;;;;;;15.33;11.27;;;;;;;3.48;60.45;102408.06;2088790;28;20182;-67
2021/12/15 03:27:04;;;;;;;14.23;10.98;;;;;;;3.54;60.08;102414.13;2088789;28;20179;-67
2021/12/15 03:33:53;;;;;;;15.90;11.02;;;;;;;3.18;59.84;102370.34;2088905;28;20617;-67
2021/12/15 03:35:18;;;;;;;14.52;10.85;;;;;;;3.46;59.95;102415.88;2088698;28;20167;-67
2021/12/15 03:36:35;;;;;;;13.57;10.73;;;;;;;3.32;60.55;102395.47;2088870;28;20221;-67
2021/12/15 03:37:40;;;;;;;14.68;11.02;;;;;;;3.53;60.24;102424.31;2088869;28;20161;-67
2021/12/15 03:38:42;;;;;;;13.70;10.52;;;;;;;3.57;60.13;102418.94;2088829;28;20171;-67
2021/12/15 03:39:45;;;;;;;16.77;10.93;;;;;;;3.55;59.61;102413.78;2088680;28;20178;-67
2021/12/15 03:40:46;;;;;;;15.30;10.48;;;;;;;3.50;59.82;102415.97;2088670;28;20186;-67
2021/12/15 03:41:55;;;;;;;15.17;10.63;;;;;;;3.47;60.18;102419.44;2088695;28;20237;-67
2021/12/15 03:43:03;;;;;;;16.48;10.93;;;;;;;3.48;60.35;102416.31;2088617;28;20199;-67
2021/12/15 03:44:06;;;;;;;14.23;10.40;;;;;;;3.48;60.24;102410.81;2088691;28;20186;-67
2021/12/15 03:45:10;;;;;;;15.88;10.75;;;;;;;3.44;59.62;102409.13;2088790;28;20278;-67
2021/12/15 03:46:15;;;;;;;13.85;10.27;;;;;;;3.43;60.18;102413.81;2088540;28;20189;-67
2021/12/15 03:47:21;;;;;;;14.25;10.18;;;;;;;3.43;59.94;102411.06;2088602;28;20298;-67
2021/12/15 03:48:25;;;;;;;12.93;9.82;;;;;;;3.43;60.36;102404.78;2088891;28;20573;-67
2021/12/15 03:49:26;;;;;;;14.90;10.45;;;;;;;3.50;60.63;102415.97;2088592;28;20241;-67
2021/12/15 03:50:28;;;;;;;14.33;10.97;;;;;;;2.93;59.93;102338.66;2088651;28;20209;-67
2021/12/15 03:51:29;;;;;;;14.75;10.68;;;;;;;3.60;60.13;102418.22;2088670;28;20417;-67
2021/12/15 03:52:30;;;;;;;13.83;10.30;;;;;;;3.47;60.13;102391.97;2095894;28;20750;-67
2021/12/15 03:53:31;;;;;;;14.13;10.23;;;;;;;3.63;59.46;102417.50;2096330;28;20721;-67
2021/12/15 03:54:31;;;;;;;14.30;9.83;;;;;;;3.70;59.59;102423.19;2088833;28;20593;-67
2021/12/15 03:55:34;;;;;;;14.73;10.63;;;;;;;3.74;59.19;102422.13;2088716;28;20179;-67
2021/12/15 03:56:36;;;;;;;13.90;10.18;;;;;;;3.57;59.87;102416.97;2088724;28;20175;-67
2021/12/15 03:57:37;;;;;;;14.80;10.00;;;;;;;3.63;59.85;102423.78;2088755;28;20201;-67
2021/12/15 03:58:37;;;;;;;12.47;9.70;;;;;;;3.70;59.81;102420.44;2088745;28;20175;-67
2021/12/15 03:59:42;;;;;;;13.17;9.20;;;;;;;3.71;59.24;102417.34;2088717;28;20176;-67
2021/12/15 04:00:47;;;;;;;12.65;9.98;;;;;;;3.72;59.35;102420.88;2088614;28;20201;-67
2021/12/15 04:01:48;;;;;;;12.13;9.10;;;;;;;3.65;59.90;102427.00;2088488;28;20188;-67
2021/12/15 04:02:51;;;;;;;12.17;9.63;;;;;;;3.54;59.86;102420.44;2088639;28;20648;-67
2021/12/15 04:03:55;;;;;;;14.35;9.40;;;;;;;3.46;59.98;102404.88;2096258;28;20303;-67
2021/12/15 04:04:56;;;;;;;13.90;9.90;;;;;;;3.65;59.86;102426.19;2095884;28;20627;-67
2021/12/15 04:06:00;;;;;;;13.13;9.63;;;;;;;3.69;59.21;102432.59;2088926;28;20259;-67
2021/12/15 04:07:00;;;;;;;13.27;9.50;;;;;;;3.61;59.84;102414.31;2088623;28;20414;-67
2021/12/15 04:08:01;;;;;;;12.73;9.17;;;;;;;3.68;59.76;102433.75;2088588;28;20220;-67
2021/12/15 04:09:06;;;;;;;13.27;9.80;;;;;;;3.53;59.45;102410.56;2088626;28;20560;-67
2021/12/15 04:10:10;;;;;;;14.82;9.68;;;;;;;3.68;59.76;102433.75;2088617;28;20179;-67
2021/12/15 04:11:13;;;;;;;13.55;9.75;;;;;;;3.62;59.82;102430.44;2088483;28;20197;-67
2021/12/15 04:12:15;;;;;;;12.93;9.45;;;;;;;3.62;59.22;102426.91;2087418;28;20187;-67
2021/12/15 04:13:16;;;;;;;13.82;9.75;;;;;;;3.62;59.67;102433.19;2089498;28;20179;-67
2021/12/15 04:14:21;;;;;;;12.38;9.57;;;;;;;3.60;59.56;102431.94;2081925;28;20189;-67
2021/12/15 04:17:31;;;;;;;12.65;9.80;;;;;;;3.52;59.69;102430.19;2085901;28;20250;-67
2021/12/15 04:18:32;;;;;;;12.57;9.80;;;;;;;3.39;60.59;102437.66;2098504;28;20188;-67
2021/12/15 04:19:36;;;;;;;14.15;10.40;;;;;;;3.10;60.52;102390.50;2098313;28;20261;-67
2021/12/15 04:20:38;;;;;;;14.15;10.07;;;;;;;3.47;60.50;102431.22;2098549;28;20463;-67
2021/12/15 04:21:39;;;;;;;15.35;10.02;;;;;;;3.35;60.70;102423.03;2098478;28;20647;-67
2021/12/15 04:22:41;;;;;;;14.18;9.50;;;;;;;3.36;60.44;102430.13;2105266;28;20185;-67
2021/12/15 04:23:49;;;;;;;14.43;10.30;;;;;;;3.38;60.97;102427.81;2106042;28;20231;-67
2021/12/15 04:24:50;;;;;;;14.13;10.27;;;;;;;3.42;60.16;102433.44;2098366;28;20198;-67
2021/12/15 04:25:58;;;;;;;16.10;10.68;;;;;;;3.36;60.39;102432.88;2098444;28;20184;-67
2021/12/15 04:27:01;;;;;;;13.55;10.40;;;;;;;3.44;61.02;102428.38;2098093;28;20169;-67
2021/12/15 04:28:06;;;;;;;13.70;9.75;;;;;;;3.47;60.88;102431.22;2098347;28;20220;-67
2021/12/15 04:29:07;;;;;;;15.18;10.25;;;;;;;3.18;60.65;102400.56;2098169;28;20171;-67
2021/12/15 04:30:09;;;;;;;14.33;10.73;;;;;;;3.33;60.42;102428.06;2098247;28;20260;-67
2021/12/15 04:31:14;;;;;;;14.52;10.02;;;;;;;3.36;60.78;102426.56;2098258;28;20182;-67
2021/12/15 04:32:31;;;;;;;12.98;9.95;;;;;;;3.31;60.58;102424.88;2097786;28;20332;-68
2021/12/15 04:33:44;;;;;;;15.38;10.55;;;;;;;3.34;61.23;102420.63;2098234;28;20162;-67
2021/12/15 04:34:44;;;;;;;19.48;10.15;;;;;;;2.84;60.72;102341.56;2098163;28;20171;-67
2021/12/15 04:35:45;;;;;;;15.40;10.63;;;;;;;2.84;60.99;102343.50;2098378;28;20250;-67
2021/12/15 04:36:48;;;;;;;14.30;10.30;;;;;;;3.31;61.14;102426.81;2098256;28;20625;-67
2021/12/15 04:37:51;;;;;;;16.35;10.63;;;;;;;3.31;60.72;102424.88;2098312;28;20180;-67
2021/12/15 04:38:53;;;;;;;13.10;10.00;;;;;;;3.31;60.74;102424.88;2098210;28;20733;-67
2021/12/15 04:39:53;;;;;;;16.95;11.02;;;;;;;3.38;61.03;102427.81;2097721;28;20187;-67
2021/12/15 04:40:55;;;;;;;14.60;10.87;;;;;;;3.42;60.95;102425.19;2097307;28;20213;-67
2021/12/15 04:41:58;;;;;;;15.93;11.75;;;;;;;3.38;60.80;102422.31;2097716;28;20182;-67
2021/12/15 04:43:00;;;;;;;14.35;10.60;;;;;;;3.37;60.81;102426.22;2097953;28;20182;-67
2021/12/15 04:44:03;;;;;;;17.88;12.30;;;;;;;3.38;61.17;102421.53;2098306;28;20187;-67
2021/12/15 04:45:07;;;;;;;17.30;11.38;;;;;;;3.02;61.10;102359.31;2098214;28;20640;-67
2021/12/15 04:46:10;;;;;;;16.92;11.60;;;;;;;3.44;60.45;102428.38;2098302;28;20193;-67
2021/12/15 04:47:13;;;;;;;14.32;10.23;;;;;;;3.50;60.84;102416.78;2097848;28;20652;-67
2021/12/15 04:48:14;;;;;;;16.08;10.68;;;;;;;3.35;61.08;102392.81;2098148;28;20190;-67
2021/12/15 04:49:18;;;;;;;15.15;10.77;;;;;;;3.50;60.37;102422.28;2098053;28;20175;-67
2021/12/15 04:50:22;;;;;;;14.73;10.65;;;;;;;2.72;60.13;102285.91;2097217;28;20205;-67
2021/12/15 04:51:23;;;;;;;13.95;10.45;;;;;;;2.87;60.25;102307.91;2097564;28;20679;-67
2021/12/15 04:52:28;;;;;;;16.75;10.63;;;;;;;3.59;60.03;102425.66;2097714;28;20242;-67
2021/12/15 04:53:28;;;;;;;13.40;9.85;;;;;;;3.62;60.31;102441.44;2098119;28;20175;-67
2021/12/15 04:54:30;;;;;;;15.30;10.80;;;;;;;3.57;60.24;102427.94;2098179;28;20181;-67
2021/12/15 04:55:33;;;;;;;15.50;11.05;;;;;;;2.87;60.26;102307.13;2098227;28;20248;-67
2021/12/15 04:56:34;;;;;;;16.40;10.88;;;;;;;3.63;60.09;102420.25;2105724;28;20184;-67
2021/12/15 04:57:34;;;;;;;15.03;10.63;;;;;;;3.64;59.90;102425.38;2097394;28;20203;-67
2021/12/15 04:58:35;;;;;;;15.77;10.93;;;;;;;3.60;60.41;102419.00;2089909;28;20172;-67
2021/12/15 04:59:36;;;;;;;14.43;10.95;;;;;;;3.61;60.82;102425.28;2089758;28;20555;-67
2021/12/15 05:00:44;;;;;;;15.90;10.90;;;;;;;2.84;59.95;102305.88;2089887;28;20279;-67
2021/12/15 05:01:45;;;;;;;16.05;11.15;;;;;;;3.49;60.12;102397.88;2089773;28;20212;-67
2021/12/15 05:02:47;;;;;;;16.33;10.88;;;;;;;3.60;60.21;102418.22;2089213;28;20650;-67
2021/12/15 05:03:47;;;;;;;14.57;11.07;;;;;;;3.51;60.30;102418.38;2089975;28;20385;-67
2021/12/15 05:04:50;;;;;;;15.47;11.50;;;;;;;3.49;60.93;102428.13;2089834;28;20199;-67
2021/12/15 05:05:51;;;;;;;16.25;11.52;;;;;;;3.38;60.74;102419.56;2089681;28;20426;-67
2021/12/15 05:06:52;;;;;;;15.52;11.73;;;;;;;3.43;60.44;102424.81;2089660;28;20262;-67
2021/12/15 05:07:53;;;;;;;14.40;10.70;;;;;;;3.47;60.88;102422.97;2089709;28;20227;-67
2021/12/15 05:08:55;;;;;;;15.17;11.10;;;;;;;3.51;60.21;102425.81;2089628;28;20265;-67
2021/12/15 05:09:55;;;;;;;16.58;11.70;;;;;;;3.52;60.73;102419.19;2089591;28;20251;-67
2021/12/15 05:10:58;;;;;;;15.30;11.30;;;;;;;3.50;60.71;102416.78;2089340;28;20733;-67
2021/12/15 05:11:59;;;;;;;15.63;11.10;;;;;;;3.41;60.30;102431.81;2089204;28;20263;-67
2021/12/15 05:13:00;;;;;;;17.03;11.67;;;;;;;3.40;60.67;102425.53;2089498;28;20175;-67
2021/12/15 05:14:01;;;;;;;16.83;11.80;;;;;;;2.58;60.98;102294.53;2089691;28;20183;-70
2021/12/15 05:15:02;;;;;;;15.47;11.83;;;;;;;3.36;60.72;102421.88;2089102;28;20193;-64
2021/12/15 05:16:05;;;;;;;18.85;12.27;;;;;;;3.43;60.96;102432.28;2087569;28;20182;-67
2021/12/15 05:17:06;;;;;;;15.18;11.63;;;;;;;3.27;61.54;102395.72;2087129;28;20191;-63
2021/12/15 05:18:07;;;;;;;17.07;11.87;;;;;;;2.62;61.14;102305.63;2087666;28;20234;-63
2021/12/15 05:19:08;;;;;;;15.52;12.45;;;;;;;3.40;60.45;102424.72;2089225;28;20183;-66
2021/12/15 05:20:10;;;;;;;15.03;11.97;;;;;;;3.40;61.28;102424.72;2089209;28;20190;-65
2021/12/15 05:21:11;;;;;;;17.23;12.55;;;;;;;3.48;60.71;102413.56;2085646;28;20620;-67
2021/12/15 05:22:13;;;;;;;16.80;11.93;;;;;;;3.16;61.59;102361.69;2086978;28;20983;-66
2021/12/15 05:23:15;;;;;;;16.35;12.07;;;;;;;3.57;61.15;102418.94;2087515;28;20180;-68
2021/12/15 05:25:30;;;;;;;15.85;11.45;;;;;;;3.65;61.39;102416.00;2088988;28;20202;-63
2021/12/15 05:26:31;;;;;;;15.73;11.93;;;;;;;3.61;60.75;102415.13;2088297;28;20186;-66
2021/12/15 05:27:32;;;;;;;16.53;11.93;;;;;;;3.65;60.99;102423.44;2087397;28;20198;-65